createdAt,value
2023-02-11T00:01:35.044Z,14.25
2023-02-11T00:04:07.018Z,18.92
2023-02-11T00:06:36.107Z,16.02
2023-02-11T00:09:03.704Z,15.88
2023-02-11T00:11:32.234Z,17.17
2023-02-11T00:14:05.039Z,14.18
2023-02-11T00:16:32.469Z,27.25
2023-02-11T00:19:08.106Z,21.83
2023-02-11T00:24:02.345Z,25.80
2023-02-11T00:26:34.038Z,22.08
2023-02-11T00:29:01.458Z,20.40
2023-02-11T00:31:28.387Z,22.05
2023-02-11T00:34:01.852Z,18.73
2023-02-11T00:36:29.834Z,21.15
2023-02-11T00:38:57.551Z,19.13
2023-02-11T00:41:24.987Z,22.15
2023-02-11T00:43:52.040Z,24.13
2023-02-11T00:46:18.569Z,23.35
2023-02-11T00:48:45.393Z,21.27
2023-02-11T00:51:12.022Z,23.40
2023-02-11T00:53:38.880Z,19.40
2023-02-11T00:56:07.672Z,22.30
2023-02-11T00:58:34.822Z,23.58
2023-02-11T01:01:01.518Z,25.73
2023-02-11T01:03:30.312Z,24.67
2023-02-11T01:05:58.776Z,23.35
2023-02-11T01:08:25.475Z,25.48
2023-02-11T01:11:02.265Z,21.25
2023-02-11T01:13:30.385Z,22.90
2023-02-11T01:15:57.661Z,19.35
2023-02-11T01:18:26.687Z,18.85
2023-02-11T01:20:54.164Z,20.90
2023-02-11T01:23:21.324Z,25.73
2023-02-11T01:25:54.525Z,26.20
2023-02-11T01:28:26.664Z,26.58
2023-02-11T01:30:53.931Z,25.00
2023-02-11T01:33:23.263Z,25.98
2023-02-11T01:35:50.425Z,21.90
2023-02-11T01:38:23.038Z,20.35
2023-02-11T01:40:56.809Z,23.35
2023-02-11T01:43:24.391Z,18.58
2023-02-11T01:45:57.236Z,23.10
2023-02-11T01:48:37.584Z,23.45
2023-02-11T01:51:12.482Z,25.95
2023-02-11T01:53:59.134Z,23.45
2023-02-11T01:56:47.228Z,25.33
2023-02-11T01:59:27.148Z,26.50
2023-02-11T02:07:17.440Z,24.95
2023-02-11T02:09:52.726Z,30.15
2023-02-11T02:12:21.566Z,29.83
2023-02-11T02:14:48.250Z,26.35
2023-02-11T02:17:38.669Z,25.80
2023-02-11T02:20:34.101Z,26.65
2023-02-11T02:23:31.513Z,26.20
2023-02-11T02:26:19.963Z,24.13
2023-02-11T02:29:12.397Z,28.20
2023-02-11T02:31:51.193Z,27.10
2023-02-11T02:34:41.428Z,25.75
2023-02-11T02:37:38.551Z,36.53
2023-02-11T02:40:12.338Z,26.40
2023-02-11T02:42:41.103Z,27.90
2023-02-11T02:45:09.166Z,27.30
2023-02-11T02:47:37.487Z,28.50
2023-02-11T02:50:08.331Z,24.35
2023-02-11T02:52:40.750Z,28.30
2023-02-11T02:55:25.976Z,28.13
2023-02-11T02:58:03.517Z,31.27
2023-02-11T03:00:53.370Z,28.85
2023-02-11T03:03:55.537Z,25.50
2023-02-11T03:06:39.706Z,28.20
2023-02-11T03:09:11.362Z,25.23
2023-02-11T03:11:39.982Z,23.85
2023-02-11T03:14:12.910Z,22.30
2023-02-11T03:16:43.579Z,21.08
2023-02-11T03:19:20.358Z,23.98
2023-02-11T03:21:49.727Z,21.25
2023-02-11T03:24:26.193Z,24.60
2023-02-11T03:26:56.492Z,24.35
2023-02-11T03:29:39.354Z,25.40
2023-02-11T03:32:18.074Z,31.00
2023-02-11T03:35:15.595Z,22.95
2023-02-11T03:37:57.578Z,21.33
2023-02-11T03:40:31.518Z,26.42
2023-02-11T03:43:17.153Z,29.60
2023-02-11T03:45:46.241Z,26.88
2023-02-11T03:48:18.350Z,28.60
2023-02-11T03:50:46.808Z,24.20
2023-02-11T03:53:20.388Z,22.58
2023-02-11T03:55:49.599Z,20.73
2023-02-11T03:58:16.320Z,18.55
2023-02-11T04:00:45.549Z,21.58
2023-02-11T04:03:13.274Z,24.73
2023-02-11T04:05:43.450Z,24.40
2023-02-11T04:08:14.527Z,26.20
2023-02-11T04:10:41.200Z,30.67
2023-02-11T04:13:07.678Z,29.33
2023-02-11T04:15:40.515Z,24.40
2023-02-11T04:18:07.036Z,26.00
2023-02-11T04:20:33.668Z,27.88
2023-02-11T04:23:02.379Z,33.58
2023-02-11T04:25:29.236Z,27.95
2023-02-11T04:27:55.930Z,27.83
2023-02-11T04:30:29.031Z,19.58
2023-02-11T04:32:55.489Z,17.90
2023-02-11T04:35:21.969Z,15.98
2023-02-11T04:37:48.695Z,23.27
2023-02-11T04:40:15.481Z,22.13
2023-02-11T04:42:45.308Z,18.77
2023-02-11T04:45:13.564Z,19.85
2023-02-11T04:47:40.142Z,30.20
2023-02-11T04:50:06.877Z,28.27
2023-02-11T04:52:33.567Z,21.95
2023-02-11T04:55:03.544Z,19.60
2023-02-11T04:57:30.109Z,17.27
2023-02-11T04:59:56.727Z,18.67
2023-02-11T05:02:23.468Z,19.75
2023-02-11T05:04:49.982Z,18.00
2023-02-11T05:07:18.245Z,18.10
2023-02-11T05:09:44.802Z,18.20
2023-02-11T05:12:12.951Z,15.25
2023-02-11T05:14:41.310Z,15.23
2023-02-11T05:17:08.212Z,12.05
2023-02-11T05:19:34.689Z,18.85
2023-02-11T05:22:03.325Z,19.95
2023-02-11T05:24:32.111Z,23.98
2023-02-11T05:26:58.653Z,22.30
2023-02-11T05:29:25.369Z,21.58
2023-02-11T05:31:51.819Z,18.60
2023-02-11T05:34:20.306Z,24.10
2023-02-11T05:36:46.927Z,17.70
2023-02-11T05:39:13.374Z,20.90
2023-02-11T05:41:39.856Z,15.45
2023-02-11T05:44:14.320Z,14.15
2023-02-11T05:46:40.854Z,16.63
2023-02-11T05:49:07.497Z,12.50
2023-02-11T05:51:34.118Z,14.15
2023-02-11T05:54:00.635Z,14.45
2023-02-11T05:56:29.015Z,15.80
2023-02-11T05:58:55.651Z,20.27
2023-02-11T06:01:22.116Z,16.52
2023-02-11T06:03:50.158Z,18.77
2023-02-11T06:06:17.723Z,27.50
2023-02-11T06:08:44.255Z,22.73
2023-02-11T06:11:10.705Z,25.17
2023-02-11T06:13:39.452Z,25.88
2023-02-11T06:16:06.161Z,29.67
2023-02-11T06:18:33.716Z,26.40
2023-02-11T06:21:02.257Z,38.15
2023-02-11T06:23:30.415Z,32.95
2023-02-11T06:26:02.639Z,22.77
2023-02-11T06:28:31.477Z,26.05
2023-02-11T06:30:59.439Z,19.73
2023-02-11T06:33:26.042Z,22.45
2023-02-11T06:35:52.904Z,22.90
2023-02-11T06:38:19.524Z,18.83
2023-02-11T06:40:50.175Z,27.33
2023-02-11T06:43:17.551Z,25.75
2023-02-11T06:45:44.550Z,23.25
2023-02-11T06:48:11.037Z,21.88
2023-02-11T06:50:40.520Z,22.92
2023-02-11T06:53:07.067Z,26.08
2023-02-11T06:55:35.883Z,27.88
2023-02-11T06:58:10.531Z,34.15
2023-02-11T07:00:40.600Z,29.38
2023-02-11T07:03:07.145Z,29.92
2023-02-11T07:05:41.432Z,21.52
2023-02-11T07:08:07.953Z,28.23
2023-02-11T07:10:34.421Z,26.60
2023-02-11T07:13:02.701Z,25.58
2023-02-11T07:15:29.260Z,25.67
2023-02-11T07:17:55.948Z,31.10
2023-02-11T07:20:22.437Z,31.00
2023-02-11T07:22:48.901Z,31.83
2023-02-11T07:25:15.714Z,32.08
2023-02-11T07:27:44.433Z,26.50
2023-02-11T07:30:11.856Z,26.98
2023-02-11T07:32:38.371Z,30.00
2023-02-11T07:35:07.540Z,29.70
2023-02-11T07:37:35.463Z,33.10
2023-02-11T07:40:02.318Z,28.77
2023-02-11T07:42:28.799Z,22.25
2023-02-11T07:44:55.301Z,23.30
2023-02-11T07:47:21.792Z,22.95
2023-02-11T07:49:50.086Z,19.40
2023-02-11T07:52:16.611Z,21.10
2023-02-11T07:54:43.124Z,21.73
2023-02-11T19:12:21.270Z,14.13
2023-02-11T19:14:47.838Z,14.82
2023-02-11T19:17:14.332Z,14.73
2023-02-11T19:19:41.288Z,13.02
2023-02-11T19:22:10.584Z,11.43
2023-02-11T19:24:37.989Z,11.43
2023-02-11T19:27:11.930Z,12.45
2023-02-11T19:29:38.652Z,10.43
2023-02-11T19:32:07.951Z,11.82
2023-02-11T19:34:41.120Z,14.30
2023-02-11T19:37:12.751Z,19.80
2023-02-11T19:39:40.356Z,15.15
2023-02-11T19:42:11.456Z,13.55
2023-02-11T19:44:38.387Z,14.30
2023-02-11T19:47:05.061Z,14.18
2023-02-11T19:49:31.530Z,13.30
2023-02-11T19:51:58.385Z,15.27
2023-02-11T19:54:29.316Z,17.38
2023-02-11T19:56:59.550Z,14.35
2023-02-11T19:59:26.697Z,15.40
2023-02-11T20:01:53.887Z,16.67
2023-02-11T20:04:22.351Z,15.35
2023-02-11T20:06:49.291Z,14.15
2023-02-11T20:09:19.791Z,14.50
2023-02-11T20:11:46.316Z,14.70
2023-02-11T20:14:14.879Z,20.42
2023-02-11T20:16:48.617Z,17.98
2023-02-11T20:19:20.424Z,17.13
2023-02-11T20:21:48.820Z,15.48
2023-02-11T20:24:17.419Z,15.40
2023-02-11T20:26:47.377Z,14.77
2023-02-11T20:29:15.569Z,13.38
2023-02-11T20:31:42.148Z,12.35
2023-02-11T20:34:10.156Z,17.70
2023-02-11T20:36:38.660Z,11.88
2023-02-11T20:39:06.241Z,14.18
2023-02-11T20:41:46.205Z,15.05
2023-02-11T20:44:13.683Z,13.93
2023-02-11T20:46:43.576Z,11.32
2023-02-11T20:49:12.016Z,10.88
2023-02-11T20:51:38.834Z,11.05
2023-02-11T20:54:06.347Z,10.13
2023-02-11T20:56:36.024Z,10.15
2023-02-11T20:59:05.184Z,9.10
2023-02-11T21:01:34.602Z,9.10
2023-02-11T21:04:04.249Z,10.02
2023-02-11T21:06:36.716Z,9.23
2023-02-11T21:09:07.378Z,8.98
2023-02-11T21:11:36.300Z,9.60
2023-02-11T21:14:02.776Z,9.57
2023-02-11T21:16:29.700Z,10.65
2023-02-11T21:18:56.872Z,8.30
2023-02-11T21:21:23.912Z,9.40
2023-02-11T21:23:50.695Z,9.13
2023-02-11T21:26:17.307Z,9.23
2023-02-11T21:28:44.639Z,9.00
2023-02-11T21:31:29.346Z,8.57
2023-02-11T21:33:56.884Z,8.00
2023-02-11T21:36:23.853Z,8.85
2023-02-11T21:38:50.633Z,9.38
2023-02-11T21:41:19.212Z,9.52
2023-02-11T21:43:45.880Z,9.07
2023-02-11T21:46:16.245Z,9.35
2023-02-11T21:48:43.244Z,9.73
2023-02-11T21:51:14.800Z,8.85
2023-02-11T21:53:41.642Z,9.43
2023-02-11T21:56:13.790Z,9.10
2023-02-11T21:58:40.678Z,8.60
2023-02-11T22:01:15.967Z,9.20
2023-02-11T22:03:43.033Z,8.32
2023-02-11T22:06:11.388Z,9.20
2023-02-11T22:08:39.339Z,10.80
2023-02-11T22:11:08.798Z,9.70
2023-02-11T22:13:36.987Z,13.52
2023-02-11T22:16:12.549Z,21.20
2023-02-11T22:18:47.880Z,19.35
2023-02-11T22:21:19.244Z,15.23
2023-02-11T22:23:46.491Z,14.20
2023-02-11T22:26:19.178Z,13.63
2023-02-11T22:28:48.188Z,11.93
2023-02-11T22:31:18.286Z,11.73
2023-02-11T22:33:45.762Z,10.00
2023-02-11T22:36:28.212Z,12.55
2023-02-11T22:38:55.416Z,9.40
2023-02-11T22:41:22.585Z,9.48
2023-02-11T22:43:49.608Z,9.35
2023-02-11T22:46:18.130Z,9.68
2023-02-11T22:48:45.406Z,9.98
2023-02-11T22:51:22.392Z,9.25
2023-02-11T22:53:57.247Z,9.20
2023-02-11T22:56:24.962Z,9.70
2023-02-11T22:58:53.696Z,9.80
2023-02-11T23:01:22.265Z,9.32
2023-02-11T23:03:48.906Z,10.35
2023-02-11T23:06:16.424Z,9.90
2023-02-11T23:08:45.185Z,9.55
2023-02-11T23:11:20.116Z,9.23
2023-02-11T23:13:49.608Z,8.75
2023-02-11T23:16:25.158Z,8.63
2023-02-11T23:18:52.775Z,9.20
2023-02-11T23:21:23.101Z,9.57
2023-02-11T23:23:55.388Z,8.63
2023-02-11T23:26:23.789Z,7.93
2023-02-11T23:28:50.592Z,12.77
2023-02-11T23:31:34.209Z,8.15
2023-02-11T23:34:01.728Z,8.15
2023-02-11T23:36:28.800Z,8.23
2023-02-11T23:38:57.286Z,8.52
2023-02-11T23:41:25.806Z,7.75
2023-02-11T23:43:54.807Z,7.35
2023-02-11T23:46:22.267Z,8.25
2023-02-11T23:48:49.392Z,10.02
2023-02-11T23:51:15.991Z,8.13
2023-02-11T23:53:42.824Z,8.15
2023-02-11T23:56:13.725Z,7.97
2023-02-11T23:58:40.435Z,7.50
